sensor_id;sensor_type;location;lat;lon;timestamp;P1;durP1;ratioP1;P2;durP2;ratioP2
63567;SDS011;49715;42.386;20.434;2022-10-16T00:01:30;26.50;;;15.90;;
63567;SDS011;49715;42.386;20.434;2022-10-16T00:03:57;29.90;;;16.50;;
63567;SDS011;49715;42.386;20.434;2022-10-16T00:06:25;29.02;;;15.30;;
63567;SDS011;49715;42.386;20.434;2022-10-16T00:08:52;30.88;;;15.02;;
63567;SDS011;49715;42.386;20.434;2022-10-16T00:11:21;30.92;;;14.95;;
63567;SDS011;49715;42.386;20.434;2022-10-16T00:13:54;28.13;;;15.63;;
63567;SDS011;49715;42.386;20.434;2022-10-16T00:16:23;36.75;;;16.75;;
63567;SDS011;49715;42.386;20.434;2022-10-16T00:18:49;27.20;;;15.10;;
63567;SDS011;49715;42.386;20.434;2022-10-16T00:21:20;29.23;;;15.90;;
63567;SDS011;49715;42.386;20.434;2022-10-16T00:24:08;29.58;;;15.73;;
63567;SDS011;49715;42.386;20.434;2022-10-16T00:26:36;29.77;;;15.02;;
63567;SDS011;49715;42.386;20.434;2022-10-16T00:29:04;26.08;;;15.50;;
63567;SDS011;49715;42.386;20.434;2022-10-16T00:31:31;25.77;;;15.75;;
63567;SDS011;49715;42.386;20.434;2022-10-16T00:33:58;31.50;;;14.73;;
63567;SDS011;49715;42.386;20.434;2022-10-16T00:36:24;26.55;;;14.38;;
63567;SDS011;49715;42.386;20.434;2022-10-16T00:38:52;28.10;;;13.65;;
63567;SDS011;49715;42.386;20.434;2022-10-16T00:41:24;25.33;;;13.75;;
63567;SDS011;49715;42.386;20.434;2022-10-16T00:44:02;26.10;;;13.63;;
63567;SDS011;49715;42.386;20.434;2022-10-16T00:46:49;22.20;;;13.70;;
63567;SDS011;49715;42.386;20.434;2022-10-16T00:51:46;26.83;;;13.02;;
63567;SDS011;49715;42.386;20.434;2022-10-16T00:54:16;27.98;;;14.18;;
63567;SDS011;49715;42.386;20.434;2022-10-16T00:56:47;30.15;;;13.05;;
63567;SDS011;49715;42.386;20.434;2022-10-16T00:59:15;22.20;;;12.93;;
63567;SDS011;49715;42.386;20.434;2022-10-16T01:01:44;27.38;;;13.18;;
63567;SDS011;49715;42.386;20.434;2022-10-16T01:04:10;26.75;;;12.13;;
63567;SDS011;49715;42.386;20.434;2022-10-16T01:09:34;34.53;;;12.88;;
63567;SDS011;49715;42.386;20.434;2022-10-16T01:12:20;21.02;;;11.23;;
63567;SDS011;49715;42.386;20.434;2022-10-16T01:14:58;22.08;;;10.60;;
63567;SDS011;49715;42.386;20.434;2022-10-16T01:17:34;18.00;;;10.88;;
63567;SDS011;49715;42.386;20.434;2022-10-16T01:20:19;18.30;;;11.05;;
63567;SDS011;49715;42.386;20.434;2022-10-16T01:31:11;18.02;;;9.88;;
63567;SDS011;49715;42.386;20.434;2022-10-16T01:33:45;19.85;;;10.02;;
63567;SDS011;49715;42.386;20.434;2022-10-16T01:36:18;20.38;;;9.43;;
63567;SDS011;49715;42.386;20.434;2022-10-16T01:41:28;15.82;;;8.73;;
63567;SDS011;49715;42.386;20.434;2022-10-16T01:46:36;16.23;;;9.43;;
63567;SDS011;49715;42.386;20.434;2022-10-16T01:49:05;16.75;;;8.32;;
63567;SDS011;49715;42.386;20.434;2022-10-16T01:51:34;18.73;;;9.32;;
63567;SDS011;49715;42.386;20.434;2022-10-16T01:54:01;15.73;;;9.10;;
63567;SDS011;49715;42.386;20.434;2022-10-16T01:56:30;19.27;;;8.95;;
63567;SDS011;49715;42.386;20.434;2022-10-16T01:59:20;16.77;;;9.65;;
63567;SDS011;49715;42.386;20.434;2022-10-16T02:01:48;16.77;;;8.52;;
63567;SDS011;49715;42.386;20.434;2022-10-16T02:04:24;18.98;;;9.18;;
63567;SDS011;49715;42.386;20.434;2022-10-16T02:06:55;16.88;;;9.70;;
63567;SDS011;49715;42.386;20.434;2022-10-16T02:09:22;18.35;;;8.75;;
63567;SDS011;49715;42.386;20.434;2022-10-16T02:11:48;19.07;;;9.57;;
63567;SDS011;49715;42.386;20.434;2022-10-16T02:14:19;19.00;;;9.50;;
63567;SDS011;49715;42.386;20.434;2022-10-16T02:16:50;16.02;;;9.18;;
63567;SDS011;49715;42.386;20.434;2022-10-16T02:19:17;14.68;;;8.95;;
63567;SDS011;49715;42.386;20.434;2022-10-16T02:29:47;18.38;;;9.70;;
63567;SDS011;49715;42.386;20.434;2022-10-16T02:32:23;19.95;;;10.52;;
63567;SDS011;49715;42.386;20.434;2022-10-16T02:34:52;16.52;;;9.60;;
63567;SDS011;49715;42.386;20.434;2022-10-16T02:37:19;15.50;;;9.65;;
63567;SDS011;49715;42.386;20.434;2022-10-16T02:39:46;17.25;;;10.75;;
63567;SDS011;49715;42.386;20.434;2022-10-16T02:42:12;18.83;;;10.47;;
63567;SDS011;49715;42.386;20.434;2022-10-16T02:44:40;17.00;;;10.13;;
63567;SDS011;49715;42.386;20.434;2022-10-16T02:47:06;17.52;;;9.52;;
63567;SDS011;49715;42.386;20.434;2022-10-16T02:49:33;17.90;;;9.77;;
63567;SDS011;49715;42.386;20.434;2022-10-16T02:51:59;22.33;;;10.30;;
63567;SDS011;49715;42.386;20.434;2022-10-16T02:54:25;16.43;;;9.47;;
63567;SDS011;49715;42.386;20.434;2022-10-16T02:56:52;18.85;;;9.63;;
63567;SDS011;49715;42.386;20.434;2022-10-16T02:59:18;16.23;;;8.90;;
63567;SDS011;49715;42.386;20.434;2022-10-16T03:01:45;14.82;;;9.60;;
63567;SDS011;49715;42.386;20.434;2022-10-16T03:04:11;19.75;;;10.10;;
63567;SDS011;49715;42.386;20.434;2022-10-16T03:06:38;16.30;;;10.77;;
63567;SDS011;49715;42.386;20.434;2022-10-16T03:09:04;23.33;;;11.38;;
63567;SDS011;49715;42.386;20.434;2022-10-16T03:11:31;20.37;;;13.03;;
63567;SDS011;49715;42.386;20.434;2022-10-16T03:13:57;15.43;;;9.50;;
63567;SDS011;49715;42.386;20.434;2022-10-16T03:16:23;13.47;;;9.43;;
63567;SDS011;49715;42.386;20.434;2022-10-16T03:18:50;14.90;;;8.90;;
63567;SDS011;49715;42.386;20.434;2022-10-16T03:21:16;14.37;;;8.83;;
63567;SDS011;49715;42.386;20.434;2022-10-16T03:23:42;19.75;;;10.95;;
63567;SDS011;49715;42.386;20.434;2022-10-16T03:26:09;20.17;;;11.60;;
63567;SDS011;49715;42.386;20.434;2022-10-16T03:28:35;17.60;;;10.00;;
63567;SDS011;49715;42.386;20.434;2022-10-16T03:31:02;17.98;;;10.75;;
63567;SDS011;49715;42.386;20.434;2022-10-16T03:33:28;19.45;;;10.75;;
63567;SDS011;49715;42.386;20.434;2022-10-16T03:35:55;23.63;;;10.45;;
63567;SDS011;49715;42.386;20.434;2022-10-16T03:38:21;22.40;;;11.75;;
63567;SDS011;49715;42.386;20.434;2022-10-16T03:40:48;24.20;;;11.97;;
63567;SDS011;49715;42.386;20.434;2022-10-16T03:43:14;21.63;;;11.50;;
63567;SDS011;49715;42.386;20.434;2022-10-16T03:45:41;19.33;;;9.85;;
63567;SDS011;49715;42.386;20.434;2022-10-16T03:48:07;19.23;;;10.60;;
63567;SDS011;49715;42.386;20.434;2022-10-16T03:50:33;23.27;;;12.27;;
63567;SDS011;49715;42.386;20.434;2022-10-16T03:53:00;19.85;;;10.55;;
63567;SDS011;49715;42.386;20.434;2022-10-16T03:55:27;22.67;;;12.82;;
63567;SDS011;49715;42.386;20.434;2022-10-16T03:57:53;20.92;;;11.55;;
63567;SDS011;49715;42.386;20.434;2022-10-16T04:00:19;21.13;;;11.77;;
63567;SDS011;49715;42.386;20.434;2022-10-16T04:02:46;16.63;;;10.67;;
63567;SDS011;49715;42.386;20.434;2022-10-16T04:05:12;18.35;;;10.68;;
63567;SDS011;49715;42.386;20.434;2022-10-16T04:07:38;18.35;;;10.95;;
63567;SDS011;49715;42.386;20.434;2022-10-16T04:10:05;19.50;;;11.40;;
63567;SDS011;49715;42.386;20.434;2022-10-16T04:12:31;17.67;;;10.45;;
63567;SDS011;49715;42.386;20.434;2022-10-16T04:14:58;21.67;;;10.93;;
63567;SDS011;49715;42.386;20.434;2022-10-16T04:17:24;21.80;;;10.88;;
63567;SDS011;49715;42.386;20.434;2022-10-16T04:19:51;21.33;;;10.57;;
63567;SDS011;49715;42.386;20.434;2022-10-16T04:22:17;18.30;;;10.68;;
63567;SDS011;49715;42.386;20.434;2022-10-16T04:24:44;15.77;;;10.53;;
63567;SDS011;49715;42.386;20.434;2022-10-16T04:27:10;21.58;;;10.80;;
63567;SDS011;49715;42.386;20.434;2022-10-16T04:29:36;24.40;;;11.30;;
63567;SDS011;49715;42.386;20.434;2022-10-16T04:32:03;20.47;;;11.40;;
63567;SDS011;49715;42.386;20.434;2022-10-16T04:34:29;19.33;;;12.57;;
63567;SDS011;49715;42.386;20.434;2022-10-16T04:36:55;18.83;;;13.57;;
63567;SDS011;49715;42.386;20.434;2022-10-16T04:39:22;22.13;;;12.53;;
63567;SDS011;49715;42.386;20.434;2022-10-16T04:41:48;20.70;;;12.40;;
63567;SDS011;49715;42.386;20.434;2022-10-16T04:44:14;19.33;;;12.23;;
63567;SDS011;49715;42.386;20.434;2022-10-16T04:46:41;18.52;;;10.57;;
63567;SDS011;49715;42.386;20.434;2022-10-16T04:49:07;15.50;;;9.95;;
63567;SDS011;49715;42.386;20.434;2022-10-16T04:51:33;22.50;;;10.35;;
63567;SDS011;49715;42.386;20.434;2022-10-16T04:53:59;15.45;;;10.20;;
63567;SDS011;49715;42.386;20.434;2022-10-16T04:56:26;16.88;;;9.43;;
63567;SDS011;49715;42.386;20.434;2022-10-16T04:58:52;20.07;;;9.50;;
63567;SDS011;49715;42.386;20.434;2022-10-16T05:01:18;18.80;;;9.40;;
63567;SDS011;49715;42.386;20.434;2022-10-16T05:03:45;20.13;;;9.40;;
63567;SDS011;49715;42.386;20.434;2022-10-16T05:06:11;18.23;;;9.45;;
63567;SDS011;49715;42.386;20.434;2022-10-16T05:08:38;18.73;;;8.93;;
63567;SDS011;49715;42.386;20.434;2022-10-16T05:11:04;15.23;;;9.67;;
63567;SDS011;49715;42.386;20.434;2022-10-16T05:13:30;17.38;;;9.07;;
63567;SDS011;49715;42.386;20.434;2022-10-16T05:15:57;18.87;;;9.97;;
63567;SDS011;49715;42.386;20.434;2022-10-16T05:18:23;17.10;;;11.38;;
63567;SDS011;49715;42.386;20.434;2022-10-16T05:20:49;26.75;;;17.95;;
63567;SDS011;49715;42.386;20.434;2022-10-16T05:23:16;34.20;;;20.23;;
63567;SDS011;49715;42.386;20.434;2022-10-16T05:25:42;42.00;;;28.63;;
63567;SDS011;49715;42.386;20.434;2022-10-16T05:28:08;52.47;;;32.15;;
63567;SDS011;49715;42.386;20.434;2022-10-16T05:30:36;36.38;;;23.77;;
63567;SDS011;49715;42.386;20.434;2022-10-16T05:33:03;33.35;;;20.10;;
63567;SDS011;49715;42.386;20.434;2022-10-16T05:35:30;32.90;;;17.35;;
63567;SDS011;49715;42.386;20.434;2022-10-16T05:37:56;21.53;;;13.13;;
63567;SDS011;49715;42.386;20.434;2022-10-16T05:40:22;28.30;;;15.02;;
63567;SDS011;49715;42.386;20.434;2022-10-16T05:42:49;29.80;;;16.80;;
63567;SDS011;49715;42.386;20.434;2022-10-16T05:45:15;26.27;;;15.70;;
63567;SDS011;49715;42.386;20.434;2022-10-16T05:47:42;28.50;;;16.98;;
63567;SDS011;49715;42.386;20.434;2022-10-16T05:50:08;30.02;;;17.52;;
63567;SDS011;49715;42.386;20.434;2022-10-16T05:52:34;36.72;;;18.27;;
63567;SDS011;49715;42.386;20.434;2022-10-16T05:55:01;35.67;;;21.63;;
63567;SDS011;49715;42.386;20.434;2022-10-16T05:57:28;29.55;;;19.52;;
63567;SDS011;49715;42.386;20.434;2022-10-16T05:59:54;33.00;;;20.00;;
63567;SDS011;49715;42.386;20.434;2022-10-16T06:02:20;42.63;;;20.03;;
63567;SDS011;49715;42.386;20.434;2022-10-16T06:04:47;30.23;;;18.03;;
63567;SDS011;49715;42.386;20.434;2022-10-16T06:07:13;30.17;;;16.80;;
63567;SDS011;49715;42.386;20.434;2022-10-16T06:09:40;30.53;;;16.03;;
63567;SDS011;49715;42.386;20.434;2022-10-16T06:12:06;29.63;;;15.30;;
63567;SDS011;49715;42.386;20.434;2022-10-16T06:14:32;33.17;;;17.60;;
63567;SDS011;49715;42.386;20.434;2022-10-16T06:16:59;51.22;;;19.10;;
63567;SDS011;49715;42.386;20.434;2022-10-16T06:19:25;45.00;;;18.17;;
63567;SDS011;49715;42.386;20.434;2022-10-16T06:21:52;44.58;;;17.67;;
63567;SDS011;49715;42.386;20.434;2022-10-16T06:24:19;39.75;;;16.15;;
63567;SDS011;49715;42.386;20.434;2022-10-16T06:26:45;43.88;;;16.27;;
63567;SDS011;49715;42.386;20.434;2022-10-16T06:29:12;48.67;;;16.90;;
63567;SDS011;49715;42.386;20.434;2022-10-16T06:31:38;54.55;;;18.70;;
63567;SDS011;49715;42.386;20.434;2022-10-16T06:34:04;56.40;;;18.77;;
63567;SDS011;49715;42.386;20.434;2022-10-16T06:36:35;48.17;;;18.15;;
63567;SDS011;49715;42.386;20.434;2022-10-16T06:39:01;48.00;;;18.67;;
63567;SDS011;49715;42.386;20.434;2022-10-16T06:41:28;48.03;;;19.13;;
63567;SDS011;49715;42.386;20.434;2022-10-16T06:43:56;48.42;;;19.38;;
63567;SDS011;49715;42.386;20.434;2022-10-16T06:46:23;52.57;;;19.70;;
63567;SDS011;49715;42.386;20.434;2022-10-16T06:48:50;48.85;;;20.25;;
63567;SDS011;49715;42.386;20.434;2022-10-16T06:51:18;49.90;;;20.95;;
63567;SDS011;49715;42.386;20.434;2022-10-16T06:53:46;54.25;;;22.77;;
63567;SDS011;49715;42.386;20.434;2022-10-16T06:56:24;50.28;;;22.75;;
63567;SDS011;49715;42.386;20.434;2022-10-16T06:58:53;54.88;;;23.23;;
63567;SDS011;49715;42.386;20.434;2022-10-16T07:01:21;52.72;;;22.85;;
63567;SDS011;49715;42.386;20.434;2022-10-16T07:03:49;54.22;;;22.42;;
63567;SDS011;49715;42.386;20.434;2022-10-16T07:06:18;56.78;;;23.48;;
63567;SDS011;49715;42.386;20.434;2022-10-16T07:08:46;57.17;;;23.70;;
63567;SDS011;49715;42.386;20.434;2022-10-16T07:13:41;53.47;;;22.80;;
63567;SDS011;49715;42.386;20.434;2022-10-16T07:16:10;193.25;;;40.80;;
63567;SDS011;49715;42.386;20.434;2022-10-16T07:18:38;48.75;;;23.52;;
63567;SDS011;49715;42.386;20.434;2022-10-16T07:21:06;58.95;;;28.58;;
63567;SDS011;49715;42.386;20.434;2022-10-16T07:23:35;55.03;;;25.10;;
63567;SDS011;49715;42.386;20.434;2022-10-16T07:26:01;46.72;;;25.08;;
63567;SDS011;49715;42.386;20.434;2022-10-16T07:28:30;56.95;;;25.77;;
63567;SDS011;49715;42.386;20.434;2022-10-16T07:31:04;48.90;;;25.55;;
63567;SDS011;49715;42.386;20.434;2022-10-16T07:33:34;44.97;;;24.15;;
63567;SDS011;49715;42.386;20.434;2022-10-16T07:36:01;39.28;;;23.52;;
63567;SDS011;49715;42.386;20.434;2022-10-16T07:38:27;43.42;;;23.90;;
63567;SDS011;49715;42.386;20.434;2022-10-16T07:40:57;38.57;;;22.93;;
63567;SDS011;49715;42.386;20.434;2022-10-16T07:43:26;43.78;;;22.02;;
63567;SDS011;49715;42.386;20.434;2022-10-16T07:45:53;49.67;;;24.67;;
63567;SDS011;49715;42.386;20.434;2022-10-16T07:48:21;47.65;;;26.08;;
63567;SDS011;49715;42.386;20.434;2022-10-16T07:50:48;48.00;;;26.40;;
63567;SDS011;49715;42.386;20.434;2022-10-16T07:53:15;46.22;;;26.77;;
63567;SDS011;49715;42.386;20.434;2022-10-16T07:55:42;42.83;;;26.33;;
63567;SDS011;49715;42.386;20.434;2022-10-16T07:58:08;45.30;;;27.63;;
63567;SDS011;49715;42.386;20.434;2022-10-16T08:00:35;54.22;;;30.58;;
63567;SDS011;49715;42.386;20.434;2022-10-16T08:03:02;50.80;;;28.75;;
63567;SDS011;49715;42.386;20.434;2022-10-16T08:05:29;40.38;;;25.60;;
63567;SDS011;49715;42.386;20.434;2022-10-16T08:07:58;40.42;;;26.13;;
63567;SDS011;49715;42.386;20.434;2022-10-16T08:10:25;54.10;;;27.60;;
63567;SDS011;49715;42.386;20.434;2022-10-16T08:12:53;35.90;;;24.45;;
63567;SDS011;49715;42.386;20.434;2022-10-16T08:15:19;42.20;;;26.50;;
63567;SDS011;49715;42.386;20.434;2022-10-16T08:18:00;39.67;;;24.58;;
63567;SDS011;49715;42.386;20.434;2022-10-16T08:20:29;32.65;;;22.77;;
63567;SDS011;49715;42.386;20.434;2022-10-16T08:22:57;37.08;;;25.00;;
63567;SDS011;49715;42.386;20.434;2022-10-16T08:25:27;36.53;;;24.40;;
63567;SDS011;49715;42.386;20.434;2022-10-16T08:30:21;33.20;;;22.15;;
63567;SDS011;49715;42.386;20.434;2022-10-16T08:32:49;34.72;;;22.38;;
63567;SDS011;49715;42.386;20.434;2022-10-16T08:35:16;35.05;;;22.58;;
63567;SDS011;49715;42.386;20.434;2022-10-16T08:37:42;34.20;;;21.35;;
63567;SDS011;49715;42.386;20.434;2022-10-16T08:40:20;39.72;;;24.98;;
63567;SDS011;49715;42.386;20.434;2022-10-16T08:50:43;40.70;;;26.92;;
63567;SDS011;49715;42.386;20.434;2022-10-16T08:53:16;38.50;;;27.17;;
63567;SDS011;49715;42.386;20.434;2022-10-16T08:55:48;42.33;;;27.20;;
63567;SDS011;49715;42.386;20.434;2022-10-16T08:58:18;40.17;;;27.17;;
63567;SDS011;49715;42.386;20.434;2022-10-16T09:00:53;39.75;;;26.95;;
63567;SDS011;49715;42.386;20.434;2022-10-16T09:03:33;38.67;;;25.65;;
63567;SDS011;49715;42.386;20.434;2022-10-16T09:09:12;34.85;;;22.67;;
63567;SDS011;49715;42.386;20.434;2022-10-16T09:22:39;27.88;;;19.92;;
63567;SDS011;49715;42.386;20.434;2022-10-16T09:25:11;25.30;;;18.83;;
63567;SDS011;49715;42.386;20.434;2022-10-16T09:27:40;24.25;;;17.50;;
63567;SDS011;49715;42.386;20.434;2022-10-16T09:30:18;31.35;;;22.83;;
63567;SDS011;49715;42.386;20.434;2022-10-16T09:35:20;26.88;;;17.80;;
63567;SDS011;49715;42.386;20.434;2022-10-16T09:37:51;47.90;;;20.83;;
63567;SDS011;49715;42.386;20.434;2022-10-16T09:40:28;24.30;;;18.45;;
63567;SDS011;49715;42.386;20.434;2022-10-16T09:43:12;25.55;;;18.38;;
63567;SDS011;49715;42.386;20.434;2022-10-16T09:45:57;23.75;;;17.38;;
63567;SDS011;49715;42.386;20.434;2022-10-16T09:48:28;24.48;;;17.52;;
63567;SDS011;49715;42.386;20.434;2022-10-16T09:51:02;22.02;;;14.90;;
63567;SDS011;49715;42.386;20.434;2022-10-16T09:53:41;21.20;;;15.82;;
63567;SDS011;49715;42.386;20.434;2022-10-16T09:56:10;19.95;;;15.68;;
63567;SDS011;49715;42.386;20.434;2022-10-16T09:58:51;23.70;;;15.82;;
63567;SDS011;49715;42.386;20.434;2022-10-16T10:01:18;20.42;;;15.85;;
63567;SDS011;49715;42.386;20.434;2022-10-16T10:03:46;21.05;;;15.68;;
63567;SDS011;49715;42.386;20.434;2022-10-16T10:06:25;19.95;;;16.38;;
63567;SDS011;49715;42.386;20.434;2022-10-16T10:09:19;22.73;;;15.57;;
63567;SDS011;49715;42.386;20.434;2022-10-16T10:14:33;21.58;;;16.35;;
63567;SDS011;49715;42.386;20.434;2022-10-16T10:19:38;22.67;;;16.98;;
63567;SDS011;49715;42.386;20.434;2022-10-16T10:24:56;24.15;;;16.60;;
63567;SDS011;49715;42.386;20.434;2022-10-16T10:27:25;19.38;;;14.63;;
63567;SDS011;49715;42.386;20.434;2022-10-16T10:30:06;17.25;;;13.35;;
63567;SDS011;49715;42.386;20.434;2022-10-16T10:35:22;16.30;;;12.68;;
63567;SDS011;49715;42.386;20.434;2022-10-16T10:46:39;15.40;;;11.52;;
63567;SDS011;49715;42.386;20.434;2022-10-16T10:49:38;17.33;;;12.05;;
63567;SDS011;49715;42.386;20.434;2022-10-16T10:52:30;19.23;;;11.93;;
63567;SDS011;49715;42.386;20.434;2022-10-16T11:01:09;14.77;;;10.95;;
63567;SDS011;49715;42.386;20.434;2022-10-16T11:06:27;18.85;;;10.50;;
63567;SDS011;49715;42.386;20.434;2022-10-16T11:11:53;11.45;;;8.45;;
63567;SDS011;49715;42.386;20.434;2022-10-16T11:16:58;11.50;;;9.10;;
63567;SDS011;49715;42.386;20.434;2022-10-16T11:22:19;18.88;;;9.65;;
63567;SDS011;49715;42.386;20.434;2022-10-16T11:25:00;11.40;;;9.10;;
63567;SDS011;49715;42.386;20.434;2022-10-16T11:30:29;12.52;;;8.35;;
63567;SDS011;49715;42.386;20.434;2022-10-16T11:39:01;10.13;;;7.32;;
63567;SDS011;49715;42.386;20.434;2022-10-16T11:41:47;11.50;;;7.85;;
63567;SDS011;49715;42.386;20.434;2022-10-16T11:47:54;12.02;;;7.97;;
63567;SDS011;49715;42.386;20.434;2022-10-16T11:55:42;10.13;;;7.65;;
63567;SDS011;49715;42.386;20.434;2022-10-16T11:58:24;10.48;;;7.95;;
63567;SDS011;49715;42.386;20.434;2022-10-16T12:06:29;10.45;;;8.48;;
63567;SDS011;49715;42.386;20.434;2022-10-16T12:08:59;12.68;;;8.13;;
63567;SDS011;49715;42.386;20.434;2022-10-16T12:16:56;10.23;;;8.02;;
63567;SDS011;49715;42.386;20.434;2022-10-16T12:19:26;10.75;;;8.13;;
63567;SDS011;49715;42.386;20.434;2022-10-16T12:22:01;10.45;;;7.25;;
63567;SDS011;49715;42.386;20.434;2022-10-16T12:24:34;12.15;;;7.68;;
63567;SDS011;49715;42.386;20.434;2022-10-16T12:27:05;9.82;;;7.60;;
63567;SDS011;49715;42.386;20.434;2022-10-16T12:29:46;13.50;;;7.75;;
63567;SDS011;49715;42.386;20.434;2022-10-16T12:34:54;10.82;;;7.72;;
63567;SDS011;49715;42.386;20.434;2022-10-16T12:37:24;11.73;;;7.50;;
63567;SDS011;49715;42.386;20.434;2022-10-16T12:39:54;9.77;;;7.57;;
63567;SDS011;49715;42.386;20.434;2022-10-16T12:42:24;13.25;;;7.97;;
63567;SDS011;49715;42.386;20.434;2022-10-16T12:44:59;9.32;;;6.65;;
63567;SDS011;49715;42.386;20.434;2022-10-16T12:52:49;10.52;;;6.72;;
63567;SDS011;49715;42.386;20.434;2022-10-16T12:55:16;7.22;;;6.20;;
63567;SDS011;49715;42.386;20.434;2022-10-16T13:05:57;9.98;;;5.63;;
63567;SDS011;49715;42.386;20.434;2022-10-16T13:30:31;10.55;;;6.95;;
63567;SDS011;49715;42.386;20.434;2022-10-16T13:33:32;9.30;;;5.85;;
63567;SDS011;49715;42.386;20.434;2022-10-16T13:36:01;9.68;;;6.53;;
63567;SDS011;49715;42.386;20.434;2022-10-16T13:38:35;10.02;;;6.68;;
63567;SDS011;49715;42.386;20.434;2022-10-16T13:41:06;9.32;;;6.70;;
63567;SDS011;49715;42.386;20.434;2022-10-16T13:43:41;11.40;;;6.82;;
63567;SDS011;49715;42.386;20.434;2022-10-16T13:46:18;10.13;;;6.70;;
63567;SDS011;49715;42.386;20.434;2022-10-16T13:48:59;11.93;;;6.57;;
63567;SDS011;49715;42.386;20.434;2022-10-16T13:51:30;11.80;;;6.75;;
63567;SDS011;49715;42.386;20.434;2022-10-16T13:53:58;9.25;;;6.35;;
63567;SDS011;49715;42.386;20.434;2022-10-16T13:56:26;8.43;;;6.60;;
63567;SDS011;49715;42.386;20.434;2022-10-16T13:59:01;10.70;;;6.57;;
63567;SDS011;49715;42.386;20.434;2022-10-16T14:04:09;8.95;;;5.90;;
63567;SDS011;49715;42.386;20.434;2022-10-16T14:06:43;11.25;;;6.03;;
63567;SDS011;49715;42.386;20.434;2022-10-16T14:14:29;13.20;;;6.07;;
63567;SDS011;49715;42.386;20.434;2022-10-16T14:17:01;10.05;;;6.07;;
63567;SDS011;49715;42.386;20.434;2022-10-16T14:19:29;11.23;;;6.25;;
63567;SDS011;49715;42.386;20.434;2022-10-16T14:21:57;9.25;;;6.68;;
63567;SDS011;49715;42.386;20.434;2022-10-16T14:24:33;9.48;;;6.15;;
63567;SDS011;49715;42.386;20.434;2022-10-16T14:27:00;7.28;;;5.60;;
63567;SDS011;49715;42.386;20.434;2022-10-16T14:29:28;7.55;;;5.70;;
63567;SDS011;49715;42.386;20.434;2022-10-16T14:32:00;11.05;;;5.90;;
63567;SDS011;49715;42.386;20.434;2022-10-16T14:36:58;10.75;;;6.82;;
63567;SDS011;49715;42.386;20.434;2022-10-16T14:39:30;11.85;;;6.75;;
63567;SDS011;49715;42.386;20.434;2022-10-16T14:41:57;9.20;;;6.65;;
63567;SDS011;49715;42.386;20.434;2022-10-16T14:44:33;12.38;;;6.40;;
63567;SDS011;49715;42.386;20.434;2022-10-16T14:47:06;10.15;;;5.90;;
63567;SDS011;49715;42.386;20.434;2022-10-16T14:49:36;15.23;;;7.50;;
63567;SDS011;49715;42.386;20.434;2022-10-16T14:52:04;10.43;;;6.85;;
63567;SDS011;49715;42.386;20.434;2022-10-16T14:54:35;8.32;;;6.60;;
63567;SDS011;49715;42.386;20.434;2022-10-16T14:57:02;15.88;;;7.47;;
63567;SDS011;49715;42.386;20.434;2022-10-16T14:59:34;12.60;;;6.93;;
63567;SDS011;49715;42.386;20.434;2022-10-16T15:02:08;7.25;;;6.15;;
63567;SDS011;49715;42.386;20.434;2022-10-16T15:04:39;9.43;;;6.90;;
63567;SDS011;49715;42.386;20.434;2022-10-16T15:07:07;16.50;;;8.23;;
63567;SDS011;49715;42.386;20.434;2022-10-16T15:09:34;14.80;;;8.88;;
63567;SDS011;49715;42.386;20.434;2022-10-16T15:12:00;17.83;;;10.65;;
63567;SDS011;49715;42.386;20.434;2022-10-16T15:16:53;21.98;;;12.57;;
63567;SDS011;49715;42.386;20.434;2022-10-16T15:19:19;26.00;;;13.02;;
63567;SDS011;49715;42.386;20.434;2022-10-16T15:21:46;29.55;;;14.18;;
63567;SDS011;49715;42.386;20.434;2022-10-16T15:24:13;25.75;;;12.38;;
63567;SDS011;49715;42.386;20.434;2022-10-16T15:26:40;23.55;;;12.50;;
63567;SDS011;49715;42.386;20.434;2022-10-16T15:29:08;24.80;;;12.52;;
63567;SDS011;49715;42.386;20.434;2022-10-16T15:31:35;20.90;;;11.55;;
63567;SDS011;49715;42.386;20.434;2022-10-16T15:34:04;21.48;;;12.00;;
63567;SDS011;49715;42.386;20.434;2022-10-16T15:36:32;19.85;;;12.15;;
63567;SDS011;49715;42.386;20.434;2022-10-16T15:39:03;25.38;;;12.10;;
63567;SDS011;49715;42.386;20.434;2022-10-16T15:41:31;21.02;;;11.23;;
63567;SDS011;49715;42.386;20.434;2022-10-16T15:43:57;26.80;;;14.20;;
63567;SDS011;49715;42.386;20.434;2022-10-16T15:46:24;30.17;;;15.05;;
63567;SDS011;49715;42.386;20.434;2022-10-16T15:48:51;32.25;;;14.05;;
63567;SDS011;49715;42.386;20.434;2022-10-16T15:51:22;26.48;;;14.95;;
63567;SDS011;49715;42.386;20.434;2022-10-16T15:53:49;28.35;;;15.10;;
63567;SDS011;49715;42.386;20.434;2022-10-16T15:56:16;38.55;;;16.38;;
63567;SDS011;49715;42.386;20.434;2022-10-16T15:58:43;29.20;;;16.50;;
63567;SDS011;49715;42.386;20.434;2022-10-16T16:01:10;34.90;;;16.25;;
63567;SDS011;49715;42.386;20.434;2022-10-16T16:03:37;30.33;;;14.18;;
63567;SDS011;49715;42.386;20.434;2022-10-16T16:06:07;32.53;;;17.25;;
63567;SDS011;49715;42.386;20.434;2022-10-16T16:08:35;40.45;;;19.10;;
63567;SDS011;49715;42.386;20.434;2022-10-16T16:13:33;45.72;;;17.30;;
63567;SDS011;49715;42.386;20.434;2022-10-16T16:16:00;46.53;;;20.23;;
63567;SDS011;49715;42.386;20.434;2022-10-16T16:18:26;44.88;;;19.92;;
63567;SDS011;49715;42.386;20.434;2022-10-16T16:20:54;41.42;;;20.83;;
63567;SDS011;49715;42.386;20.434;2022-10-16T16:23:21;45.70;;;19.60;;
63567;SDS011;49715;42.386;20.434;2022-10-16T16:26:11;44.42;;;21.30;;
63567;SDS011;49715;42.386;20.434;2022-10-16T16:28:41;27.33;;;16.83;;
63567;SDS011;49715;42.386;20.434;2022-10-16T16:31:08;44.92;;;20.48;;
63567;SDS011;49715;42.386;20.434;2022-10-16T16:33:35;46.78;;;23.40;;
63567;SDS011;49715;42.386;20.434;2022-10-16T16:38:31;44.42;;;26.02;;
63567;SDS011;49715;42.386;20.434;2022-10-16T16:43:24;49.53;;;29.25;;
63567;SDS011;49715;42.386;20.434;2022-10-16T16:45:52;46.40;;;25.85;;
63567;SDS011;49715;42.386;20.434;2022-10-16T16:48:20;45.30;;;26.73;;
63567;SDS011;49715;42.386;20.434;2022-10-16T16:50:47;58.92;;;28.33;;
63567;SDS011;49715;42.386;20.434;2022-10-16T16:53:14;62.05;;;27.83;;
63567;SDS011;49715;42.386;20.434;2022-10-16T16:55:41;71.05;;;34.72;;
63567;SDS011;49715;42.386;20.434;2022-10-16T16:58:07;58.90;;;36.92;;
63567;SDS011;49715;42.386;20.434;2022-10-16T17:00:34;116.63;;;59.95;;
63567;SDS011;49715;42.386;20.434;2022-10-16T17:03:00;132.02;;;68.40;;
63567;SDS011;49715;42.386;20.434;2022-10-16T17:05:27;69.25;;;38.60;;
63567;SDS011;49715;42.386;20.434;2022-10-16T17:07:55;93.72;;;50.03;;
63567;SDS011;49715;42.386;20.434;2022-10-16T17:10:21;57.20;;;37.72;;
63567;SDS011;49715;42.386;20.434;2022-10-16T17:12:47;53.58;;;31.52;;
63567;SDS011;49715;42.386;20.434;2022-10-16T17:17:41;58.75;;;29.35;;
63567;SDS011;49715;42.386;20.434;2022-10-16T17:20:07;51.67;;;28.95;;
63567;SDS011;49715;42.386;20.434;2022-10-16T17:22:36;46.13;;;27.50;;
63567;SDS011;49715;42.386;20.434;2022-10-16T17:25:04;53.35;;;29.33;;
63567;SDS011;49715;42.386;20.434;2022-10-16T17:27:33;50.88;;;26.67;;
63567;SDS011;49715;42.386;20.434;2022-10-16T17:30:02;49.15;;;27.25;;